Terminal Aerodrome Forecast
Issued by NWS Wilmington, NC

Home | Current Version | Previous Version | Text Only | Print | Product List | Glossary On
Versions: 1 2 3 4 5 6 7 8 9 10 11 12
000
FTUS42 KILM 192320
TAFFLO
TAF
KFLO 192320Z 2000/2024 18005KT P6SM FEW080
     FM200900 00000KT 2SM BR FEW250
     FM201100 VRB03KT P6SM SCT250
     FM201800 11005KT P6SM SCT050=

USA.gov is the U.S. government's official web portal to all federal, state and local government web resources and services.